sensor_id;sensor_type;location;lat;lon;timestamp;pressure;altitude;pressure_sealevel;temperature
18161;BMP280;9205;52.032;4.314;2023-05-07T00:00:23;101574.69;;;16.68
18161;BMP280;9205;52.032;4.314;2023-05-07T00:02:51;101563.47;;;16.70
18161;BMP280;9205;52.032;4.314;2023-05-07T00:05:18;101569.56;;;16.68
18161;BMP280;9205;52.032;4.314;2023-05-07T00:07:46;101568.81;;;16.64
18161;BMP280;9205;52.032;4.314;2023-05-07T00:10:14;101573.09;;;16.64
18161;BMP280;9205;52.032;4.314;2023-05-07T00:12:42;101574.13;;;16.60
18161;BMP280;9205;52.032;4.314;2023-05-07T00:15:09;101581.25;;;16.50
18161;BMP280;9205;52.032;4.314;2023-05-07T00:17:37;101584.56;;;16.54
18161;BMP280;9205;52.032;4.314;2023-05-07T00:20:06;101588.88;;;16.53
18161;BMP280;9205;52.032;4.314;2023-05-07T00:22:33;101585.34;;;16.56
18161;BMP280;9205;52.032;4.314;2023-05-07T00:25:01;101577.59;;;16.57
18161;BMP280;9205;52.032;4.314;2023-05-07T00:27:29;101563.88;;;16.58
18161;BMP280;9205;52.032;4.314;2023-05-07T00:29:56;101570.69;;;16.59
18161;BMP280;9205;52.032;4.314;2023-05-07T00:32:23;101566.41;;;16.60
18161;BMP280;9205;52.032;4.314;2023-05-07T00:34:51;101569.00;;;16.58
18161;BMP280;9205;52.032;4.314;2023-05-07T00:37:18;101563.84;;;16.60
18161;BMP280;9205;52.032;4.314;2023-05-07T00:39:45;101565.69;;;16.56
18161;BMP280;9205;52.032;4.314;2023-05-07T00:42:12;101570.75;;;16.58
18161;BMP280;9205;52.032;4.314;2023-05-07T00:44:42;101566.41;;;16.60
18161;BMP280;9205;52.032;4.314;2023-05-07T00:47:09;101562.13;;;16.60
18161;BMP280;9205;52.032;4.314;2023-05-07T00:49:41;101565.56;;;16.59
18161;BMP280;9205;52.032;4.314;2023-05-07T00:52:11;101557.88;;;16.59
18161;BMP280;9205;52.032;4.314;2023-05-07T00:54:41;101558.00;;;16.56
18161;BMP280;9205;52.032;4.314;2023-05-07T00:57:10;101554.47;;;16.59
18161;BMP280;9205;52.032;4.314;2023-05-07T00:59:38;101550.16;;;16.59
18161;BMP280;9205;52.032;4.314;2023-05-07T01:02:08;101553.69;;;16.57
18161;BMP280;9205;52.032;4.314;2023-05-07T01:04:35;101558.09;;;16.53
18161;BMP280;9205;52.032;4.314;2023-05-07T01:07:03;101549.56;;;16.53
18161;BMP280;9205;52.032;4.314;2023-05-07T01:09:32;101550.41;;;16.53
18161;BMP280;9205;52.032;4.314;2023-05-07T01:12:01;101543.72;;;16.49
18161;BMP280;9205;52.032;4.314;2023-05-07T01:14:28;101544.63;;;16.47
18161;BMP280;9205;52.032;4.314;2023-05-07T01:16:56;101543.91;;;16.44
18161;BMP280;9205;52.032;4.314;2023-05-07T01:19:26;101539.66;;;16.43
18161;BMP280;9205;52.032;4.314;2023-05-07T01:22:05;101538.81;;;16.42
18161;BMP280;9205;52.032;4.314;2023-05-07T01:24:43;101541.53;;;16.38
18161;BMP280;9205;52.032;4.314;2023-05-07T01:27:12;101533.84;;;16.38
18161;BMP280;9205;52.032;4.314;2023-05-07T01:29:40;101544.19;;;16.35
18161;BMP280;9205;52.032;4.314;2023-05-07T01:32:08;101534.88;;;16.34
18161;BMP280;9205;52.032;4.314;2023-05-07T01:34:36;101544.19;;;16.35
18161;BMP280;9205;52.032;4.314;2023-05-07T01:37:04;101539.06;;;16.35
18161;BMP280;9205;52.032;4.314;2023-05-07T01:39:33;101537.38;;;16.35
18161;BMP280;9205;52.032;4.314;2023-05-07T01:42:02;101534.88;;;16.34
18161;BMP280;9205;52.032;4.314;2023-05-07T01:44:30;101542.59;;;16.32
18161;BMP280;9205;52.032;4.314;2023-05-07T01:46:58;101546.00;;;16.33
18161;BMP280;9205;52.032;4.314;2023-05-07T01:49:26;101539.28;;;16.29
18161;BMP280;9205;52.032;4.314;2023-05-07T01:51:53;101535.84;;;16.30
18161;BMP280;9205;52.032;4.314;2023-05-07T01:54:25;101533.34;;;16.27
18161;BMP280;9205;52.032;4.314;2023-05-07T01:56:56;101536.03;;;16.24
18161;BMP280;9205;52.032;4.314;2023-05-07T01:59:25;101536.72;;;16.29
18161;BMP280;9205;52.032;4.314;2023-05-07T02:01:52;101540.16;;;16.29
18161;BMP280;9205;52.032;4.314;2023-05-07T02:04:19;101547.84;;;16.29
18161;BMP280;9205;52.032;4.314;2023-05-07T02:06:46;101540.88;;;16.33
18161;BMP280;9205;52.032;4.314;2023-05-07T02:09:15;101540.88;;;16.33
18161;BMP280;9205;52.032;4.314;2023-05-07T02:11:44;101537.53;;;16.31
18161;BMP280;9205;52.032;4.314;2023-05-07T02:14:12;101545.22;;;16.31
18161;BMP280;9205;52.032;4.314;2023-05-07T02:16:41;101546.88;;;16.32
18161;BMP280;9205;52.032;4.314;2023-05-07T02:19:10;101549.63;;;16.26
18161;BMP280;9205;52.032;4.314;2023-05-07T02:21:38;101541.81;;;16.30
18161;BMP280;9205;52.032;4.314;2023-05-07T02:24:05;101543.44;;;16.33
18161;BMP280;9205;52.032;4.314;2023-05-07T02:26:33;101540.75;;;16.36
18161;BMP280;9205;52.032;4.314;2023-05-07T02:29:00;101539.88;;;16.37
18161;BMP280;9205;52.032;4.314;2023-05-07T02:31:27;101536.50;;;16.35
18161;BMP280;9205;52.032;4.314;2023-05-07T02:33:56;101538.25;;;16.34
18161;BMP280;9205;52.032;4.314;2023-05-07T02:36:23;101544.19;;;16.36
18161;BMP280;9205;52.032;4.314;2023-05-07T02:39:01;101542.69;;;16.28
18161;BMP280;9205;52.032;4.314;2023-05-07T02:41:29;101549.63;;;16.26
18161;BMP280;9205;52.032;4.314;2023-05-07T02:43:56;101556.34;;;16.30
18161;BMP280;9205;52.032;4.314;2023-05-07T02:46:23;101553.72;;;16.31
18161;BMP280;9205;52.032;4.314;2023-05-07T02:48:59;101563.16;;;16.31
18161;BMP280;9205;52.032;4.314;2023-05-07T02:51:26;101540.88;;;16.33
18161;BMP280;9205;52.032;4.314;2023-05-07T02:53:56;101547.69;;;16.34
18161;BMP280;9205;52.032;4.314;2023-05-07T02:56:26;101547.56;;;16.37
18161;BMP280;9205;52.032;4.314;2023-05-07T02:58:53;101548.59;;;16.31
18161;BMP280;9205;52.032;4.314;2023-05-07T03:01:23;101553.69;;;16.33
18161;BMP280;9205;52.032;4.314;2023-05-07T03:03:59;101545.88;;;16.36
18161;BMP280;9205;52.032;4.314;2023-05-07T03:06:26;101543.13;;;16.42
18161;BMP280;9205;52.032;4.314;2023-05-07T03:08:53;101546.63;;;16.39
18161;BMP280;9205;52.032;4.314;2023-05-07T03:11:20;101553.41;;;16.40
18161;BMP280;9205;52.032;4.314;2023-05-07T03:13:47;101548.28;;;16.40
18161;BMP280;9205;52.032;4.314;2023-05-07T03:16:17;101544.94;;;16.38
18161;BMP280;9205;52.032;4.314;2023-05-07T03:18:44;101533.75;;;16.41
18161;BMP280;9205;52.032;4.314;2023-05-07T03:21:13;101536.31;;;16.41
18161;BMP280;9205;52.032;4.314;2023-05-07T03:23:40;101533.91;;;16.36
18161;BMP280;9205;52.032;4.314;2023-05-07T03:26:08;101535.53;;;16.39
18161;BMP280;9205;52.032;4.314;2023-05-07T03:28:36;101537.44;;;16.34
18161;BMP280;9205;52.032;4.314;2023-05-07T03:31:07;101538.91;;;16.41
18161;BMP280;9205;52.032;4.314;2023-05-07T03:33:34;101532.88;;;16.42
18161;BMP280;9205;52.032;4.314;2023-05-07T03:36:02;101537.88;;;16.45
18161;BMP280;9205;52.032;4.314;2023-05-07T03:38:30;101525.91;;;16.45
18161;BMP280;9205;52.032;4.314;2023-05-07T03:40:58;101526.84;;;16.43
18161;BMP280;9205;52.032;4.314;2023-05-07T03:43:25;101530.41;;;16.39
18161;BMP280;9205;52.032;4.314;2023-05-07T03:46:00;101526.84;;;16.43
18161;BMP280;9205;52.032;4.314;2023-05-07T03:48:28;101532.19;;;16.37
18161;BMP280;9205;52.032;4.314;2023-05-07T03:50:58;101535.53;;;16.39
18161;BMP280;9205;52.032;4.314;2023-05-07T03:53:31;101545.72;;;16.40
18161;BMP280;9205;52.032;4.314;2023-05-07T03:55:59;101550.97;;;16.37
18161;BMP280;9205;52.032;4.314;2023-05-07T03:58:27;101551.72;;;16.41
18161;BMP280;9205;52.032;4.314;2023-05-07T04:00:58;101548.25;;;16.42
18161;BMP280;9205;52.032;4.314;2023-05-07T04:03:29;101559.44;;;16.39
18161;BMP280;9205;52.032;4.314;2023-05-07T04:05:58;101567.13;;;16.39
18161;BMP280;9205;52.032;4.314;2023-05-07T04:08:26;101567.03;;;16.42
18161;BMP280;9205;52.032;4.314;2023-05-07T04:10:59;101557.50;;;16.46
18161;BMP280;9205;52.032;4.314;2023-05-07T04:13:30;101562.63;;;16.46
18161;BMP280;9205;52.032;4.314;2023-05-07T04:15:58;101561.75;;;16.47
18161;BMP280;9205;52.032;4.314;2023-05-07T04:18:26;101569.44;;;16.47
18161;BMP280;9205;52.032;4.314;2023-05-07T04:20:53;101565.13;;;16.47
18161;BMP280;9205;52.032;4.314;2023-05-07T04:23:21;101549.81;;;16.46
18161;BMP280;9205;52.032;4.314;2023-05-07T04:25:48;101560.06;;;16.46
18161;BMP280;9205;52.032;4.314;2023-05-07T04:28:23;101558.56;;;16.40
18161;BMP280;9205;52.032;4.314;2023-05-07T04:30:51;101560.16;;;16.43
18161;BMP280;9205;52.032;4.314;2023-05-07T04:33:19;101564.41;;;16.44
18161;BMP280;9205;52.032;4.314;2023-05-07T04:35:47;101569.44;;;16.47
18161;BMP280;9205;52.032;4.314;2023-05-07T04:38:14;101565.06;;;16.50
18161;BMP280;9205;52.032;4.314;2023-05-07T04:40:43;101556.53;;;16.49
18161;BMP280;9205;52.032;4.314;2023-05-07T04:43:14;101561.47;;;16.54
18161;BMP280;9205;52.032;4.314;2023-05-07T04:45:50;101557.06;;;16.57
18161;BMP280;9205;52.032;4.314;2023-05-07T04:48:17;101562.25;;;16.56
18161;BMP280;9205;52.032;4.314;2023-05-07T04:50:48;101564.75;;;16.59
18161;BMP280;9205;52.032;4.314;2023-05-07T04:53:16;101562.25;;;16.56
18161;BMP280;9205;52.032;4.314;2023-05-07T04:55:43;101564.75;;;16.59
18161;BMP280;9205;52.032;4.314;2023-05-07T04:58:10;101556.97;;;16.60
18161;BMP280;9205;52.032;4.314;2023-05-07T05:00:39;101564.63;;;16.62
18161;BMP280;9205;52.032;4.314;2023-05-07T05:03:09;101568.81;;;16.64
18161;BMP280;9205;52.032;4.314;2023-05-07T05:05:38;101564.59;;;16.63
18161;BMP280;9205;52.032;4.314;2023-05-07T05:08:06;101567.31;;;16.59
18161;BMP280;9205;52.032;4.314;2023-05-07T05:10:38;101575.72;;;16.62
18161;BMP280;9205;52.032;4.314;2023-05-07T05:13:06;101571.41;;;16.64
18161;BMP280;9205;52.032;4.314;2023-05-07T05:15:34;101573.22;;;16.61
18161;BMP280;9205;52.032;4.314;2023-05-07T05:18:02;101577.34;;;16.65
18161;BMP280;9205;52.032;4.314;2023-05-07T05:20:31;101570.44;;;16.67
18161;BMP280;9205;52.032;4.314;2023-05-07T05:22:59;101573.81;;;16.69
18161;BMP280;9205;52.032;4.314;2023-05-07T05:25:26;101575.41;;;16.71
18161;BMP280;9205;52.032;4.314;2023-05-07T05:27:54;101585.56;;;16.74
18161;BMP280;9205;52.032;4.314;2023-05-07T05:30:23;101584.81;;;16.71
18161;BMP280;9205;52.032;4.314;2023-05-07T05:32:50;101575.34;;;16.73
18161;BMP280;9205;52.032;4.314;2023-05-07T05:35:17;101580.44;;;16.74
18161;BMP280;9205;52.032;4.314;2023-05-07T05:37:46;101581.22;;;16.76
18161;BMP280;9205;52.032;4.314;2023-05-07T05:40:15;101590.53;;;16.79
18161;BMP280;9205;52.032;4.314;2023-05-07T05:42:42;101585.25;;;16.83
18161;BMP280;9205;52.032;4.314;2023-05-07T05:45:10;101590.28;;;16.86
18161;BMP280;9205;52.032;4.314;2023-05-07T05:47:38;101580.66;;;16.91
18161;BMP280;9205;52.032;4.314;2023-05-07T05:50:07;101589.94;;;16.95
18161;BMP280;9205;52.032;4.314;2023-05-07T05:52:35;101592.34;;;17.00
18161;BMP280;9205;52.032;4.314;2023-05-07T05:55:04;101592.34;;;17.00
18161;BMP280;9205;52.032;4.314;2023-05-07T05:57:32;101595.69;;;17.02
18161;BMP280;9205;52.032;4.314;2023-05-07T06:00:01;101595.66;;;17.03
18161;BMP280;9205;52.032;4.314;2023-05-07T06:02:32;101598.09;;;17.06
18161;BMP280;9205;52.032;4.314;2023-05-07T06:04:59;101602.28;;;17.09
18161;BMP280;9205;52.032;4.314;2023-05-07T06:07:26;101598.00;;;17.09
18161;BMP280;9205;52.032;4.314;2023-05-07T06:09:54;101594.53;;;17.10
18161;BMP280;9205;52.032;4.314;2023-05-07T06:12:23;101604.66;;;17.13
18161;BMP280;9205;52.032;4.314;2023-05-07T06:14:50;101600.44;;;17.12
18161;BMP280;9205;52.032;4.314;2023-05-07T06:17:18;101598.94;;;17.07
18161;BMP280;9205;52.032;4.314;2023-05-07T06:19:45;101601.44;;;17.08
18161;BMP280;9205;52.032;4.314;2023-05-07T06:22:14;101608.34;;;17.06
18161;BMP280;9205;52.032;4.314;2023-05-07T06:24:41;101605.91;;;17.03
18161;BMP280;9205;52.032;4.314;2023-05-07T06:27:09;101607.53;;;17.06
18161;BMP280;9205;52.032;4.314;2023-05-07T06:29:38;101602.50;;;17.03
18161;BMP280;9205;52.032;4.314;2023-05-07T06:32:13;101606.34;;;17.14
18161;BMP280;9205;52.032;4.314;2023-05-07T06:34:42;101604.44;;;17.19
18161;BMP280;9205;52.032;4.314;2023-05-07T06:37:10;101601.00;;;17.20
18161;BMP280;9205;52.032;4.314;2023-05-07T06:39:56;101607.34;;;17.34
18161;BMP280;9205;52.032;4.314;2023-05-07T06:42:23;101590.25;;;17.33
18161;BMP280;9205;52.032;4.314;2023-05-07T06:44:58;101600.78;;;17.26
18161;BMP280;9205;52.032;4.314;2023-05-07T06:47:26;101602.63;;;17.23
18161;BMP280;9205;52.032;4.314;2023-05-07T06:49:54;101603.63;;;17.19
18161;BMP280;9205;52.032;4.314;2023-05-07T06:52:25;101605.81;;;17.29
18161;BMP280;9205;52.032;4.314;2023-05-07T06:54:53;101601.19;;;17.38
18161;BMP280;9205;52.032;4.314;2023-05-07T06:57:24;101605.53;;;17.59
18161;BMP280;9205;52.032;4.314;2023-05-07T06:59:51;101599.59;;;17.57
18161;BMP280;9205;52.032;4.314;2023-05-07T07:02:21;101606.31;;;17.61
18161;BMP280;9205;52.032;4.314;2023-05-07T07:04:49;101600.88;;;17.69
18161;BMP280;9205;52.032;4.314;2023-05-07T07:07:16;101599.97;;;17.70
18161;BMP280;9205;52.032;4.314;2023-05-07T07:09:46;101601.59;;;17.72
18161;BMP280;9205;52.032;4.314;2023-05-07T07:12:16;101612.59;;;17.76
18161;BMP280;9205;52.032;4.314;2023-05-07T07:14:43;101616.28;;;17.90
18161;BMP280;9205;52.032;4.314;2023-05-07T07:17:12;101611.44;;;17.83
18161;BMP280;9205;52.032;4.314;2023-05-07T07:19:40;101607.97;;;17.84
18161;BMP280;9205;52.032;4.314;2023-05-07T07:22:08;101608.53;;;17.92
18161;BMP280;9205;52.032;4.314;2023-05-07T07:24:36;101614.84;;;18.04
18161;BMP280;9205;52.032;4.314;2023-05-07T07:27:06;101613.19;;;18.04
18161;BMP280;9205;52.032;4.314;2023-05-07T07:29:34;101610.31;;;18.11
18161;BMP280;9205;52.032;4.314;2023-05-07T07:32:02;101608.75;;;18.07
18161;BMP280;9205;52.032;4.314;2023-05-07T07:34:29;101613.75;;;18.10
18161;BMP280;9205;52.032;4.314;2023-05-07T07:36:58;101610.19;;;18.14
18161;BMP280;9205;52.032;4.314;2023-05-07T07:39:31;101615.25;;;18.15
18161;BMP280;9205;52.032;4.314;2023-05-07T07:41:59;101609.94;;;18.20
18161;BMP280;9205;52.032;4.314;2023-05-07T07:44:28;101614.13;;;18.22
18161;BMP280;9205;52.032;4.314;2023-05-07T07:47:00;101610.75;;;18.22
18161;BMP280;9205;52.032;4.314;2023-05-07T07:49:28;101612.56;;;18.18
18161;BMP280;9205;52.032;4.314;2023-05-07T07:51:58;101614.06;;;18.24
18161;BMP280;9205;52.032;4.314;2023-05-07T07:54:26;101614.22;;;18.41
18161;BMP280;9205;52.032;4.314;2023-05-07T07:56:54;101616.16;;;18.56
18161;BMP280;9205;52.032;4.314;2023-05-07T07:59:22;101611.78;;;18.58
18161;BMP280;9205;52.032;4.314;2023-05-07T08:01:50;101619.84;;;18.70
18161;BMP280;9205;52.032;4.314;2023-05-07T08:04:19;101602.59;;;18.72
18161;BMP280;9205;52.032;4.314;2023-05-07T08:06:47;101615.03;;;18.81
18161;BMP280;9205;52.032;4.314;2023-05-07T08:09:15;101623.38;;;18.68
18161;BMP280;9205;52.032;4.314;2023-05-07T08:11:43;101616.16;;;18.56
18161;BMP280;9205;52.032;4.314;2023-05-07T08:14:11;101626.63;;;18.51
18161;BMP280;9205;52.032;4.314;2023-05-07T08:16:38;101622.53;;;18.47
18161;BMP280;9205;52.032;4.314;2023-05-07T08:19:07;101634.75;;;18.62
18161;BMP280;9205;52.032;4.314;2023-05-07T08:21:38;101637.78;;;18.72
18161;BMP280;9205;52.032;4.314;2023-05-07T08:24:05;101647.50;;;18.85
18161;BMP280;9205;52.032;4.314;2023-05-07T08:26:34;101634.34;;;18.91
18161;BMP280;9205;52.032;4.314;2023-05-07T08:29:02;101639.22;;;18.97
18161;BMP280;9205;52.032;4.314;2023-05-07T08:31:29;101632.94;;;19.04
18161;BMP280;9205;52.032;4.314;2023-05-07T08:33:58;101636.63;;;18.98
18161;BMP280;9205;52.032;4.314;2023-05-07T08:36:25;101637.00;;;19.09
18161;BMP280;9205;52.032;4.314;2023-05-07T08:38:53;101639.25;;;19.17
18161;BMP280;9205;52.032;4.314;2023-05-07T08:41:21;101646.19;;;19.15
18161;BMP280;9205;52.032;4.314;2023-05-07T08:43:51;101647.34;;;19.08
18161;BMP280;9205;52.032;4.314;2023-05-07T08:46:21;101643.22;;;19.24
18161;BMP280;9205;52.032;4.314;2023-05-07T08:48:52;101648.88;;;19.32
18161;BMP280;9205;52.032;4.314;2023-05-07T08:51:21;101658.63;;;19.44
18161;BMP280;9205;52.032;4.314;2023-05-07T08:53:50;101651.78;;;19.43
18161;BMP280;9205;52.032;4.314;2023-05-07T08:56:28;101650.19;;;19.40
18161;BMP280;9205;52.032;4.314;2023-05-07T08:58:57;101656.81;;;19.46
18161;BMP280;9205;52.032;4.314;2023-05-07T09:01:26;101651.25;;;19.55
18161;BMP280;9205;52.032;4.314;2023-05-07T09:03:55;101653.53;;;19.61
18161;BMP280;9205;52.032;4.314;2023-05-07T09:06:23;101652.84;;;19.75
18161;BMP280;9205;52.032;4.314;2023-05-07T09:08:53;101654.84;;;19.87
18161;BMP280;9205;52.032;4.314;2023-05-07T09:11:23;101654.91;;;20.04
18161;BMP280;9205;52.032;4.314;2023-05-07T09:13:54;101652.19;;;20.07
18161;BMP280;9205;52.032;4.314;2023-05-07T09:16:25;101650.22;;;20.12
18161;BMP280;9205;52.032;4.314;2023-05-07T09:18:54;101653.13;;;20.23
18161;BMP280;9205;52.032;4.314;2023-05-07T09:21:22;101655.94;;;20.19
18161;BMP280;9205;52.032;4.314;2023-05-07T09:23:53;101653.22;;;20.22
18161;BMP280;9205;52.032;4.314;2023-05-07T09:26:23;101664.44;;;20.21
18161;BMP280;9205;52.032;4.314;2023-05-07T09:28:51;101661.31;;;20.14
18161;BMP280;9205;52.032;4.314;2023-05-07T09:31:20;101660.53;;;20.12
18161;BMP280;9205;52.032;4.314;2023-05-07T09:33:52;101659.59;;;20.15
18161;BMP280;9205;52.032;4.314;2023-05-07T09:36:23;101661.19;;;20.17
18161;BMP280;9205;52.032;4.314;2023-05-07T09:38:50;101664.53;;;20.19
18161;BMP280;9205;52.032;4.314;2023-05-07T09:41:18;101667.19;;;20.35
18161;BMP280;9205;52.032;4.314;2023-05-07T09:44:00;101667.56;;;20.44
18161;BMP280;9205;52.032;4.314;2023-05-07T09:46:42;101661.97;;;20.53
18161;BMP280;9205;52.032;4.314;2023-05-07T09:49:23;101671.97;;;20.59
18161;BMP280;9205;52.032;4.314;2023-05-07T09:52:00;101670.69;;;20.50
18161;BMP280;9205;52.032;4.314;2023-05-07T09:54:29;101668.56;;;20.58
18161;BMP280;9205;52.032;4.314;2023-05-07T09:56:58;101670.84;;;20.64
18161;BMP280;9205;52.032;4.314;2023-05-07T09:59:32;101672.38;;;20.68
18161;BMP280;9205;52.032;4.314;2023-05-07T10:02:04;101669.72;;;20.70
18161;BMP280;9205;52.032;4.314;2023-05-07T10:04:39;101676.63;;;20.86
18161;BMP280;9205;52.032;4.314;2023-05-07T10:07:08;101675.81;;;20.86
18161;BMP280;9205;52.032;4.314;2023-05-07T10:09:37;101675.22;;;20.81
18161;BMP280;9205;52.032;4.314;2023-05-07T10:12:12;101668.97;;;20.85
18161;BMP280;9205;52.032;4.314;2023-05-07T10:14:40;101664.09;;;20.96
18161;BMP280;9205;52.032;4.314;2023-05-07T10:17:09;101664.91;;;21.13
18161;BMP280;9205;52.032;4.314;2023-05-07T10:19:41;101669.06;;;21.16
18161;BMP280;9205;52.032;4.314;2023-05-07T10:22:09;101667.72;;;21.09
18161;BMP280;9205;52.032;4.314;2023-05-07T10:24:44;101664.00;;;21.14
18161;BMP280;9205;52.032;4.314;2023-05-07T10:27:17;101666.63;;;21.13
18161;BMP280;9205;52.032;4.314;2023-05-07T10:30:07;101664.91;;;21.13
18161;BMP280;9205;52.032;4.314;2023-05-07T10:32:45;101662.09;;;21.18
18161;BMP280;9205;52.032;4.314;2023-05-07T10:35:26;101662.22;;;21.15
18161;BMP280;9205;52.032;4.314;2023-05-07T10:37:57;101667.19;;;21.02
18161;BMP280;9205;52.032;4.314;2023-05-07T10:40:27;101664.09;;;20.96
18161;BMP280;9205;52.032;4.314;2023-05-07T10:42:56;101676.25;;;20.94
18161;BMP280;9205;52.032;4.314;2023-05-07T10:45:27;101684.31;;;20.88
18161;BMP280;9205;52.032;4.314;2023-05-07T10:48:08;101685.28;;;20.85
18161;BMP280;9205;52.032;4.314;2023-05-07T10:50:40;101684.22;;;20.89
18161;BMP280;9205;52.032;4.314;2023-05-07T10:53:25;101688.84;;;21.00
18161;BMP280;9205;52.032;4.314;2023-05-07T10:56:26;101692.88;;;21.05
18161;BMP280;9205;52.032;4.314;2023-05-07T10:59:32;101688.97;;;21.14
18161;BMP280;9205;52.032;4.314;2023-05-07T11:02:15;101688.38;;;21.09
18161;BMP280;9205;52.032;4.314;2023-05-07T11:05:20;101682.75;;;21.18
18161;BMP280;9205;52.032;4.314;2023-05-07T11:07:56;101684.47;;;21.17
18161;BMP280;9205;52.032;4.314;2023-05-07T11:10:55;101688.41;;;21.24
18161;BMP280;9205;52.032;4.314;2023-05-07T11:13:48;101683.88;;;21.29
18161;BMP280;9205;52.032;4.314;2023-05-07T11:16:41;101695.09;;;21.28
18161;BMP280;9205;52.032;4.314;2023-05-07T11:19:50;101692.97;;;21.36
18161;BMP280;9205;52.032;4.314;2023-05-07T11:22:46;101689.22;;;21.58
18161;BMP280;9205;52.032;4.314;2023-05-07T11:25:25;101690.84;;;21.59
18161;BMP280;9205;52.032;4.314;2023-05-07T11:28:06;101696.38;;;21.36
18161;BMP280;9205;52.032;4.314;2023-05-07T11:30:36;101697.38;;;21.02
18161;BMP280;9205;52.032;4.314;2023-05-07T11:33:06;101697.78;;;20.77
18161;BMP280;9205;52.032;4.314;2023-05-07T11:35:34;101700.69;;;20.70
18161;BMP280;9205;52.032;4.314;2023-05-07T11:38:02;101705.09;;;20.68
18161;BMP280;9205;52.032;4.314;2023-05-07T11:40:33;101708.50;;;20.68
18161;BMP280;9205;52.032;4.314;2023-05-07T11:43:10;101701.81;;;20.64
18161;BMP280;9205;52.032;4.314;2023-05-07T11:45:38;101702.19;;;20.74
18161;BMP280;9205;52.032;4.314;2023-05-07T11:48:05;101705.56;;;20.76
18161;BMP280;9205;52.032;4.314;2023-05-07T11:50:33;101716.22;;;20.87
18161;BMP280;9205;52.032;4.314;2023-05-07T11:53:00;101722.44;;;20.83
18161;BMP280;9205;52.032;4.314;2023-05-07T11:55:27;101723.47;;;20.62
18161;BMP280;9205;52.032;4.314;2023-05-07T11:57:56;101719.78;;;20.32
18161;BMP280;9205;52.032;4.314;2023-05-07T12:00:23;101717.34;;;20.29
18161;BMP280;9205;52.032;4.314;2023-05-07T12:02:50;101724.81;;;20.17
18161;BMP280;9205;52.032;4.314;2023-05-07T12:05:18;101726.69;;;20.13
18161;BMP280;9205;52.032;4.314;2023-05-07T12:07:45;101729.16;;;20.16
18161;BMP280;9205;52.032;4.314;2023-05-07T12:10:12;101724.75;;;20.18
18161;BMP280;9205;52.032;4.314;2023-05-07T12:12:40;101720.94;;;20.08
18161;BMP280;9205;52.032;4.314;2023-05-07T12:15:10;101734.72;;;20.07
18161;BMP280;9205;52.032;4.314;2023-05-07T12:17:38;101733.63;;;19.94
18161;BMP280;9205;52.032;4.314;2023-05-07T12:20:07;101731.06;;;19.94
18161;BMP280;9205;52.032;4.314;2023-05-07T12:22:35;101731.66;;;19.99
18161;BMP280;9205;52.032;4.314;2023-05-07T12:25:04;101733.91;;;20.07
18161;BMP280;9205;52.032;4.314;2023-05-07T12:27:36;101728.34;;;20.16
18161;BMP280;9205;52.032;4.314;2023-05-07T12:30:04;101733.31;;;20.19
18161;BMP280;9205;52.032;4.314;2023-05-07T12:32:33;101728.72;;;20.25
18161;BMP280;9205;52.032;4.314;2023-05-07T12:35:03;101733.13;;;20.23
18161;BMP280;9205;52.032;4.314;2023-05-07T12:37:32;101738.28;;;20.23
18161;BMP280;9205;52.032;4.314;2023-05-07T12:40:08;101744.75;;;20.13
18161;BMP280;9205;52.032;4.314;2023-05-07T12:42:38;101743.22;;;19.91
18161;BMP280;9205;52.032;4.314;2023-05-07T12:45:09;101747.94;;;19.81
18161;BMP280;9205;52.032;4.314;2023-05-07T12:47:38;101747.94;;;19.81
18161;BMP280;9205;52.032;4.314;2023-05-07T12:50:07;101749.00;;;19.77
18161;BMP280;9205;52.032;4.314;2023-05-07T12:52:34;101754.16;;;19.77
18161;BMP280;9205;52.032;4.314;2023-05-07T12:55:08;101756.41;;;19.85
18161;BMP280;9205;52.032;4.314;2023-05-07T12:57:39;101758.91;;;19.86
18161;BMP280;9205;52.032;4.314;2023-05-07T13:00:08;101759.22;;;19.79
18161;BMP280;9205;52.032;4.314;2023-05-07T13:02:41;101766.81;;;19.64
18161;BMP280;9205;52.032;4.314;2023-05-07T13:05:10;101765.81;;;19.48
18161;BMP280;9205;52.032;4.314;2023-05-07T13:07:37;101761.44;;;19.50
18161;BMP280;9205;52.032;4.314;2023-05-07T13:10:06;101765.97;;;19.63
18161;BMP280;9205;52.032;4.314;2023-05-07T13:12:34;101761.47;;;19.68
18161;BMP280;9205;52.032;4.314;2023-05-07T13:15:01;101759.38;;;19.76
18161;BMP280;9205;52.032;4.314;2023-05-07T13:17:28;101757.09;;;19.88
18161;BMP280;9205;52.032;4.314;2023-05-07T13:19:58;101761.19;;;19.92
18161;BMP280;9205;52.032;4.314;2023-05-07T13:22:25;101766.53;;;20.08
18161;BMP280;9205;52.032;4.314;2023-05-07T13:24:52;101765.75;;;20.24
18161;BMP280;9205;52.032;4.314;2023-05-07T13:27:20;101761.06;;;20.32
18161;BMP280;9205;52.032;4.314;2023-05-07T13:29:47;101759.34;;;20.49
18161;BMP280;9205;52.032;4.314;2023-05-07T13:32:14;101764.22;;;20.55
18161;BMP280;9205;52.032;4.314;2023-05-07T13:34:42;101767.03;;;20.68
18161;BMP280;9205;52.032;4.314;2023-05-07T13:37:10;101755.50;;;20.75
18161;BMP280;9205;52.032;4.314;2023-05-07T13:39:37;101749.63;;;20.90
18161;BMP280;9205;52.032;4.314;2023-05-07T13:42:05;101749.25;;;20.97
18161;BMP280;9205;52.032;4.314;2023-05-07T13:44:32;101753.72;;;21.11
18161;BMP280;9205;52.032;4.314;2023-05-07T13:46:59;101757.00;;;21.14
18161;BMP280;9205;52.032;4.314;2023-05-07T13:49:27;101757.50;;;21.21
18161;BMP280;9205;52.032;4.314;2023-05-07T13:51:55;101756.22;;;21.29
18161;BMP280;9205;52.032;4.314;2023-05-07T13:54:24;101762.97;;;21.31
18161;BMP280;9205;52.032;4.314;2023-05-07T13:56:51;101768.28;;;21.28
18161;BMP280;9205;52.032;4.314;2023-05-07T13:59:19;101766.31;;;21.33
18161;BMP280;9205;52.032;4.314;2023-05-07T14:01:46;101773.78;;;21.23
18161;BMP280;9205;52.032;4.314;2023-05-07T14:04:13;101775.00;;;21.16
18161;BMP280;9205;52.032;4.314;2023-05-07T14:06:41;101774.22;;;21.14
18161;BMP280;9205;52.032;4.314;2023-05-07T14:09:08;101776.75;;;21.15
18161;BMP280;9205;52.032;4.314;2023-05-07T14:11:39;101779.56;;;21.11
18161;BMP280;9205;52.032;4.314;2023-05-07T14:14:06;101791.25;;;21.01
18161;BMP280;9205;52.032;4.314;2023-05-07T14:16:36;101786.25;;;20.81
18161;BMP280;9205;52.032;4.314;2023-05-07T14:19:03;101781.94;;;20.63
18161;BMP280;9205;52.032;4.314;2023-05-07T14:21:31;101782.75;;;20.63
18161;BMP280;9205;52.032;4.314;2023-05-07T14:23:58;101785.31;;;20.47